NBL98 YBBN-YBMK
Flight info
| Callsign | NBL98 |
|---|---|
| Flight time | 1h 10m |
| Altitude | 36000 |
| Route | YBBN/19L N0458F360 DCT BN Q67 RUNLA Q493 EMSUP V308 MK DCT YBMK/14 |
| Aircraft | B738/M-SDE2E3FGHIRWXY/LB1 |
Departure
| Time | 2026-04-20 18:29 |
|---|---|
| Airport | Brisbane International Airport (YBBN) |
Arrival
| Time | 2026-04-20 19:39 |
|---|---|
| Airport | Mackay Airport (YBMK) |
| Time | Latitude | Longitude | Altitude | Speed | Heading |
|---|---|---|---|---|---|
| 2026-04-20 18:29 | -27.36657 | 153.05895 | 4487 ft | 279 kts | 17° |
| 2026-04-20 18:29 | -27.34787 | 153.06467 | 5455 ft | 280 kts | 17° |
| 2026-04-20 18:29 | -27.32890 | 153.07073 | 6214 ft | 288 kts | 17° |
| 2026-04-20 18:29 | -27.30943 | 153.07681 | 7019 ft | 292 kts | 16° |
| 2026-04-20 18:30 | -27.28966 | 153.08277 | 7821 ft | 296 kts | 15° |
| 2026-04-20 18:30 | -27.26979 | 153.08857 | 8607 ft | 300 kts | 15° |
| 2026-04-20 18:30 | -27.24967 | 153.09541 | 9408 ft | 304 kts | 20° |
| 2026-04-20 18:30 | -27.22951 | 153.10323 | 10195 ft | 309 kts | 20° |
| 2026-04-20 18:31 | -27.20844 | 153.11093 | 10534 ft | 331 kts | 18° |
| 2026-04-20 18:31 | -27.18556 | 153.11850 | 10722 ft | 355 kts | 16° |
| 2026-04-20 18:31 | -27.16095 | 153.12593 | 10939 ft | 376 kts | 15° |
| 2026-04-20 18:31 | -27.13522 | 153.13314 | 11460 ft | 385 kts | 14° |
| 2026-04-20 18:32 | -27.10900 | 153.14012 | 12137 ft | 389 kts | 13° |
| 2026-04-20 18:32 | -27.08249 | 153.14699 | 12862 ft | 392 kts | 13° |
| 2026-04-20 18:32 | -27.05574 | 153.15381 | 13546 ft | 396 kts | 12° |
| 2026-04-20 18:32 | -27.02868 | 153.16066 | 14185 ft | 401 kts | 12° |
| 2026-04-20 18:33 | -27.00134 | 153.16757 | 14772 ft | 405 kts | 12° |
| 2026-04-20 18:33 | -26.97365 | 153.17457 | 15368 ft | 410 kts | 12° |
| 2026-04-20 18:33 | -26.94569 | 153.18164 | 15968 ft | 414 kts | 12° |
| 2026-04-20 18:33 | -26.91747 | 153.18879 | 16552 ft | 418 kts | 12° |
| 2026-04-20 18:34 | -26.88894 | 153.19600 | 17121 ft | 422 kts | 12° |
| 2026-04-20 18:34 | -26.86013 | 153.20329 | 17683 ft | 427 kts | 12° |
| 2026-04-20 18:34 | -26.83099 | 153.21066 | 18235 ft | 431 kts | 12° |
| 2026-04-20 18:34 | -26.80156 | 153.21810 | 18743 ft | 435 kts | 12° |
| 2026-04-20 18:35 | -26.77188 | 153.22559 | 19224 ft | 439 kts | 12° |
| 2026-04-20 18:35 | -26.74237 | 153.23304 | 19721 ft | 442 kts | 12° |
| 2026-04-20 18:35 | -26.71198 | 153.23888 | 20190 ft | 445 kts | 3° |
| 2026-04-20 18:35 | -26.68102 | 153.23877 | 20664 ft | 446 kts | 352° |
| 2026-04-20 18:36 | -26.65040 | 153.23314 | 21147 ft | 446 kts | 342° |
| 2026-04-20 18:36 | -26.62072 | 153.22306 | 21624 ft | 447 kts | 339° |
| 2026-04-20 18:36 | -26.59097 | 153.21234 | 22076 ft | 450 kts | 339° |
| 2026-04-20 18:36 | -26.56103 | 153.20155 | 22530 ft | 454 kts | 339° |
| 2026-04-20 18:37 | -26.53092 | 153.19085 | 22991 ft | 456 kts | 339° |
| 2026-04-20 18:37 | -26.50055 | 153.18022 | 23436 ft | 459 kts | 339° |
| 2026-04-20 18:37 | -26.46995 | 153.16963 | 23833 ft | 462 kts | 339° |
| 2026-04-20 18:37 | -26.43907 | 153.15900 | 24168 ft | 465 kts | 339° |
| 2026-04-20 18:38 | -26.40817 | 153.14838 | 24511 ft | 468 kts | 339° |
| 2026-04-20 18:38 | -26.37693 | 153.13765 | 24861 ft | 470 kts | 339° |
| 2026-04-20 18:38 | -26.34563 | 153.12689 | 25185 ft | 473 kts | 339° |
| 2026-04-20 18:38 | -26.31401 | 153.11602 | 25477 ft | 477 kts | 339° |
| 2026-04-20 18:39 | -26.28293 | 153.10315 | 25789 ft | 475 kts | 331° |
| 2026-04-20 18:39 | -26.25412 | 153.08532 | 26116 ft | 471 kts | 321° |
| 2026-04-20 18:39 | -26.22784 | 153.06364 | 26531 ft | 469 kts | 318° |
| 2026-04-20 18:39 | -26.20189 | 153.04163 | 26842 ft | 471 kts | 318° |
| 2026-04-20 18:40 | -26.17559 | 153.01954 | 27111 ft | 475 kts | 319° |
| 2026-04-20 18:40 | -26.14894 | 152.99753 | 27393 ft | 478 kts | 319° |
| 2026-04-20 18:40 | -26.12204 | 152.97556 | 27686 ft | 480 kts | 319° |
| 2026-04-20 18:40 | -26.09509 | 152.95367 | 27981 ft | 482 kts | 319° |
| 2026-04-20 18:41 | -26.06784 | 152.93172 | 28254 ft | 484 kts | 319° |
| 2026-04-20 18:41 | -26.04042 | 152.90974 | 28526 ft | 486 kts | 320° |
| 2026-04-20 18:41 | -26.01287 | 152.88769 | 28798 ft | 488 kts | 320° |
| 2026-04-20 18:41 | -25.98530 | 152.86563 | 29056 ft | 490 kts | 319° |
| 2026-04-20 18:42 | -25.95784 | 152.84365 | 29384 ft | 491 kts | 319° |
| 2026-04-20 18:42 | -25.92988 | 152.82128 | 29779 ft | 489 kts | 320° |
| 2026-04-20 18:42 | -25.90271 | 152.79955 | 30286 ft | 485 kts | 320° |
| 2026-04-20 18:42 | -25.87536 | 152.77768 | 30695 ft | 482 kts | 320° |
| 2026-04-20 18:43 | -25.84817 | 152.75594 | 31067 ft | 480 kts | 319° |
| 2026-04-20 18:43 | -25.82116 | 152.73435 | 31421 ft | 479 kts | 319° |
| 2026-04-20 18:43 | -25.79415 | 152.71276 | 31767 ft | 477 kts | 319° |
| 2026-04-20 18:43 | -25.76727 | 152.69129 | 32151 ft | 474 kts | 319° |
| 2026-04-20 18:44 | -25.74052 | 152.66994 | 32530 ft | 472 kts | 319° |
| 2026-04-20 18:44 | -25.71399 | 152.64877 | 32897 ft | 470 kts | 319° |
| 2026-04-20 18:44 | -25.68748 | 152.62764 | 33227 ft | 468 kts | 319° |
| 2026-04-20 18:44 | -25.66103 | 152.60656 | 33575 ft | 467 kts | 319° |
| 2026-04-20 18:45 | -25.63470 | 152.58559 | 33933 ft | 465 kts | 319° |
| 2026-04-20 18:45 | -25.60848 | 152.56472 | 34264 ft | 463 kts | 319° |
| 2026-04-20 18:45 | -25.58247 | 152.54403 | 34594 ft | 459 kts | 319° |
| 2026-04-20 18:45 | -25.55660 | 152.52347 | 34917 ft | 456 kts | 319° |
| 2026-04-20 18:46 | -25.53111 | 152.50320 | 35062 ft | 458 kts | 319° |
| 2026-04-20 18:46 | -25.50513 | 152.48254 | 35177 ft | 460 kts | 319° |
| 2026-04-20 18:46 | -25.47909 | 152.46185 | 35414 ft | 460 kts | 319° |
| 2026-04-20 18:46 | -25.45322 | 152.44133 | 35692 ft | 457 kts | 319° |
| 2026-04-20 18:47 | -25.42736 | 152.42084 | 35950 ft | 456 kts | 319° |
| 2026-04-20 18:47 | -25.40162 | 152.40045 | 36133 ft | 456 kts | 319° |
| 2026-04-20 18:47 | -25.34956 | 152.35919 | 36178 ft | 460 kts | 319° |
| 2026-04-20 18:48 | -25.29771 | 152.31820 | 36179 ft | 456 kts | 319° |
| 2026-04-20 18:48 | -25.24629 | 152.27758 | 36172 ft | 453 kts | 319° |
| 2026-04-20 18:49 | -25.19517 | 152.23723 | 36179 ft | 451 kts | 319° |
| 2026-04-20 18:49 | -25.14427 | 152.19708 | 36182 ft | 449 kts | 319° |
| 2026-04-20 18:50 | -25.09338 | 152.15696 | 36182 ft | 449 kts | 319° |
| 2026-04-20 18:50 | -25.04251 | 152.11692 | 36184 ft | 450 kts | 319° |
| 2026-04-20 18:51 | -24.99171 | 152.07706 | 36184 ft | 451 kts | 319° |
| 2026-04-20 18:51 | -24.94042 | 152.03692 | 36187 ft | 453 kts | 319° |
| 2026-04-20 18:52 | -24.88892 | 151.99665 | 36184 ft | 455 kts | 319° |
| 2026-04-20 18:52 | -24.84593 | 151.96305 | 36180 ft | 456 kts | 319° |
| 2026-04-20 18:53 | -24.79392 | 151.92244 | 36165 ft | 458 kts | 319° |
| 2026-04-20 18:53 | -24.74195 | 151.88190 | 36179 ft | 459 kts | 319° |
| 2026-04-20 18:54 | -24.68989 | 151.84133 | 36180 ft | 459 kts | 319° |
| 2026-04-20 18:54 | -24.63768 | 151.80070 | 36181 ft | 459 kts | 319° |
| 2026-04-20 18:55 | -24.58560 | 151.76020 | 36171 ft | 458 kts | 319° |
| 2026-04-20 18:55 | -24.53359 | 151.71980 | 36175 ft | 457 kts | 319° |
| 2026-04-20 18:56 | -24.48182 | 151.67963 | 36174 ft | 455 kts | 319° |
| 2026-04-20 18:56 | -24.43022 | 151.63963 | 36174 ft | 453 kts | 319° |
| 2026-04-20 18:57 | -24.37903 | 151.59998 | 36170 ft | 452 kts | 319° |
| 2026-04-20 18:57 | -24.32771 | 151.56027 | 36175 ft | 451 kts | 319° |
| 2026-04-20 18:58 | -24.27633 | 151.52056 | 36164 ft | 451 kts | 319° |
| 2026-04-20 18:58 | -24.22509 | 151.48099 | 36172 ft | 451 kts | 319° |
| 2026-04-20 18:59 | -24.17380 | 151.44139 | 36182 ft | 450 kts | 319° |
| 2026-04-20 18:59 | -24.12246 | 151.40180 | 36177 ft | 451 kts | 319° |
| 2026-04-20 19:00 | -24.07113 | 151.36232 | 36166 ft | 451 kts | 319° |
| 2026-04-20 19:00 | -24.01970 | 151.32279 | 36159 ft | 451 kts | 319° |
| 2026-04-20 19:01 | -23.96833 | 151.28330 | 36168 ft | 452 kts | 319° |
| 2026-04-20 19:01 | -23.91720 | 151.24405 | 36152 ft | 451 kts | 319° |
| 2026-04-20 19:02 | -23.86584 | 151.20473 | 36159 ft | 451 kts | 320° |
| 2026-04-20 19:02 | -23.81206 | 151.16861 | 36155 ft | 454 kts | 323° |
| 2026-04-20 19:03 | -23.75733 | 151.13414 | 36161 ft | 454 kts | 324° |
| 2026-04-20 19:03 | -23.70273 | 151.09965 | 36152 ft | 453 kts | 323° |
| 2026-04-20 19:04 | -23.64826 | 151.06490 | 36165 ft | 453 kts | 323° |
| 2026-04-20 19:04 | -23.59432 | 151.03035 | 36139 ft | 451 kts | 323° |
| 2026-04-20 19:05 | -23.53991 | 150.99550 | 36147 ft | 450 kts | 323° |
| 2026-04-20 19:05 | -23.48623 | 150.96116 | 36152 ft | 449 kts | 323° |
| 2026-04-20 19:06 | -23.43228 | 150.92669 | 36151 ft | 449 kts | 323° |
| 2026-04-20 19:06 | -23.37839 | 150.89229 | 36152 ft | 448 kts | 323° |
| 2026-04-20 19:07 | -23.32461 | 150.85800 | 36153 ft | 448 kts | 323° |
| 2026-04-20 19:07 | -23.27088 | 150.82377 | 36142 ft | 447 kts | 323° |
| 2026-04-20 19:08 | -23.19039 | 150.77256 | 36144 ft | 446 kts | 323° |
| 2026-04-20 19:09 | -23.13710 | 150.73869 | 36137 ft | 446 kts | 323° |
| 2026-04-20 19:09 | -23.08355 | 150.70469 | 36157 ft | 446 kts | 323° |
| 2026-04-20 19:10 | -23.02961 | 150.67046 | 36145 ft | 447 kts | 323° |
| 2026-04-20 19:10 | -22.97622 | 150.63662 | 36115 ft | 447 kts | 322° |
| 2026-04-20 19:11 | -22.92259 | 150.60266 | 36141 ft | 446 kts | 322° |
| 2026-04-20 19:11 | -22.86898 | 150.56874 | 36148 ft | 446 kts | 322° |
| 2026-04-20 19:12 | -22.81530 | 150.53486 | 36151 ft | 446 kts | 322° |
| 2026-04-20 19:12 | -22.76158 | 150.50091 | 36137 ft | 446 kts | 322° |
| 2026-04-20 19:13 | -22.70798 | 150.46709 | 36139 ft | 446 kts | 322° |
| 2026-04-20 19:13 | -22.65442 | 150.43333 | 36112 ft | 445 kts | 322° |
| 2026-04-20 19:14 | -22.60087 | 150.39961 | 36132 ft | 445 kts | 322° |
| 2026-04-20 19:14 | -22.54746 | 150.36600 | 36144 ft | 444 kts | 322° |
| 2026-04-20 19:15 | -22.49397 | 150.33238 | 36145 ft | 444 kts | 322° |
| 2026-04-20 19:15 | -22.44148 | 150.29951 | 36122 ft | 423 kts | 322° |
| 2026-04-20 19:15 | -22.41642 | 150.28386 | 36123 ft | 408 kts | 321° |
| 2026-04-20 19:16 | -22.39222 | 150.26871 | 36125 ft | 395 kts | 321° |
| 2026-04-20 19:16 | -22.36885 | 150.25404 | 36118 ft | 381 kts | 321° |
| 2026-04-20 19:16 | -22.34654 | 150.24001 | 36127 ft | 373 kts | 320° |
| 2026-04-20 19:17 | -22.30132 | 150.21148 | 36144 ft | 382 kts | 320° |
| 2026-04-20 19:17 | -22.25599 | 150.18067 | 36134 ft | 383 kts | 311° |
| 2026-04-20 19:18 | -22.21563 | 150.14303 | 36129 ft | 385 kts | 310° |
| 2026-04-20 19:18 | -22.17508 | 150.10491 | 36138 ft | 387 kts | 310° |
| 2026-04-20 19:19 | -22.13475 | 150.06744 | 36125 ft | 377 kts | 310° |
| 2026-04-20 19:19 | -22.09507 | 150.03068 | 36145 ft | 377 kts | 310° |
| 2026-04-20 19:20 | -22.05520 | 149.99373 | 36144 ft | 378 kts | 310° |
| 2026-04-20 19:20 | -22.01513 | 149.95668 | 36144 ft | 380 kts | 310° |
| 2026-04-20 19:21 | -21.97519 | 149.91987 | 36124 ft | 381 kts | 310° |
| 2026-04-20 19:21 | -21.93471 | 149.88264 | 36110 ft | 381 kts | 309° |
| 2026-04-20 19:22 | -21.89454 | 149.84573 | 36082 ft | 375 kts | 309° |
| 2026-04-20 19:22 | -21.87445 | 149.82725 | 35172 ft | 387 kts | 310° |
| 2026-04-20 19:22 | -21.85382 | 149.80820 | 34418 ft | 395 kts | 310° |
| 2026-04-20 19:22 | -21.83269 | 149.78872 | 33530 ft | 404 kts | 311° |
| 2026-04-20 19:23 | -21.81109 | 149.76887 | 32638 ft | 412 kts | 312° |
| 2026-04-20 19:23 | -21.78906 | 149.74866 | 31752 ft | 420 kts | 313° |
| 2026-04-20 19:23 | -21.76672 | 149.72820 | 30789 ft | 423 kts | 313° |
| 2026-04-20 19:23 | -21.74432 | 149.70773 | 29814 ft | 422 kts | 314° |
| 2026-04-20 19:24 | -21.72195 | 149.68728 | 28745 ft | 422 kts | 314° |
| 2026-04-20 19:24 | -21.69964 | 149.66687 | 27719 ft | 421 kts | 314° |
| 2026-04-20 19:24 | -21.67736 | 149.64646 | 26730 ft | 420 kts | 314° |
| 2026-04-20 19:24 | -21.65515 | 149.62612 | 25776 ft | 419 kts | 314° |
| 2026-04-20 19:25 | -21.63297 | 149.60585 | 24852 ft | 418 kts | 315° |
| 2026-04-20 19:25 | -21.61008 | 149.58702 | 23968 ft | 421 kts | 321° |
| 2026-04-20 19:25 | -21.58574 | 149.56958 | 22972 ft | 421 kts | 323° |
| 2026-04-20 19:25 | -21.56105 | 149.55270 | 21940 ft | 420 kts | 324° |
| 2026-04-20 19:26 | -21.53643 | 149.53591 | 20997 ft | 417 kts | 324° |
| 2026-04-20 19:26 | -21.51208 | 149.51910 | 20034 ft | 415 kts | 324° |
| 2026-04-20 19:26 | -21.48794 | 149.50221 | 19100 ft | 412 kts | 324° |
| 2026-04-20 19:26 | -21.46404 | 149.48532 | 18163 ft | 410 kts | 324° |
| 2026-04-20 19:27 | -21.44032 | 149.46849 | 17145 ft | 407 kts | 324° |
| 2026-04-20 19:27 | -21.41673 | 149.45173 | 16138 ft | 405 kts | 324° |
| 2026-04-20 19:27 | -21.39332 | 149.43508 | 15177 ft | 402 kts | 324° |
| 2026-04-20 19:27 | -21.37007 | 149.41857 | 14438 ft | 396 kts | 325° |
| 2026-04-20 19:28 | -21.34761 | 149.40265 | 14082 ft | 378 kts | 325° |
| 2026-04-20 19:28 | -21.32606 | 149.38739 | 13654 ft | 365 kts | 325° |
| 2026-04-20 19:28 | -21.30513 | 149.37282 | 13236 ft | 353 kts | 329° |
| 2026-04-20 19:28 | -21.28321 | 149.36249 | 12824 ft | 343 kts | 340° |
| 2026-04-20 19:29 | -21.26064 | 149.35430 | 12414 ft | 332 kts | 341° |
| 2026-04-20 19:29 | -21.23946 | 149.34672 | 11925 ft | 319 kts | 341° |
| 2026-04-20 19:29 | -21.21884 | 149.33918 | 11381 ft | 307 kts | 341° |
| 2026-04-20 19:29 | -21.19903 | 149.33177 | 10829 ft | 296 kts | 341° |
| 2026-04-20 19:30 | -21.17988 | 149.32449 | 10277 ft | 288 kts | 341° |
| 2026-04-20 19:30 | -21.16123 | 149.31735 | 9707 ft | 282 kts | 341° |
| 2026-04-20 19:30 | -21.14275 | 149.31027 | 9118 ft | 282 kts | 341° |
| 2026-04-20 19:30 | -21.12432 | 149.30320 | 8541 ft | 281 kts | 342° |
| 2026-04-20 19:31 | -21.10664 | 149.29434 | 7946 ft | 283 kts | 323° |
| 2026-04-20 19:31 | -21.09271 | 149.27950 | 7408 ft | 281 kts | 313° |
| 2026-04-20 19:31 | -21.07949 | 149.26405 | 6866 ft | 281 kts | 313° |
| 2026-04-20 19:31 | -21.06622 | 149.24862 | 6302 ft | 281 kts | 314° |
| 2026-04-20 19:32 | -21.05300 | 149.23333 | 5749 ft | 277 kts | 314° |
| 2026-04-20 19:32 | -21.03999 | 149.21840 | 5242 ft | 271 kts | 314° |
| 2026-04-20 19:32 | -21.02730 | 149.20390 | 4803 ft | 263 kts | 314° |
| 2026-04-20 19:32 | -21.01490 | 149.18977 | 4342 ft | 257 kts | 314° |
| 2026-04-20 19:33 | -21.00278 | 149.17596 | 3890 ft | 252 kts | 314° |
| 2026-04-20 19:33 | -20.99145 | 149.16225 | 3437 ft | 247 kts | 304° |
| 2026-04-20 19:33 | -20.98631 | 149.14517 | 3018 ft | 238 kts | 268° |
| 2026-04-20 19:33 | -20.98929 | 149.12908 | 2932 ft | 207 kts | 245° |
| 2026-04-20 19:34 | -20.99566 | 149.11664 | 2871 ft | 177 kts | 234° |
| 2026-04-20 19:34 | -21.00201 | 149.10596 | 2866 ft | 168 kts | 232° |
| 2026-04-20 19:34 | -21.00834 | 149.09548 | 2866 ft | 167 kts | 232° |
| 2026-04-20 19:34 | -21.01624 | 149.08700 | 2855 ft | 156 kts | 193° |
| 2026-04-20 19:35 | -21.02626 | 149.08810 | 2896 ft | 148 kts | 150° |
| 2026-04-20 19:35 | -21.03560 | 149.09298 | 2839 ft | 150 kts | 151° |
| 2026-04-20 19:35 | -21.04499 | 149.09778 | 2650 ft | 147 kts | 150° |
| 2026-04-20 19:35 | -21.05377 | 149.10304 | 2475 ft | 144 kts | 146° |
| 2026-04-20 19:36 | -21.06231 | 149.10872 | 2289 ft | 145 kts | 146° |
| 2026-04-20 19:36 | -21.07079 | 149.11447 | 2080 ft | 143 kts | 144° |
| 2026-04-20 19:36 | -21.07918 | 149.12019 | 1875 ft | 142 kts | 146° |
| 2026-04-20 19:36 | -21.08739 | 149.12578 | 1703 ft | 139 kts | 146° |
| 2026-04-20 19:37 | -21.09554 | 149.13135 | 1508 ft | 140 kts | 145° |
| 2026-04-20 19:37 | -21.10363 | 149.13688 | 1338 ft | 137 kts | 144° |
| 2026-04-20 19:37 | -21.11176 | 149.14242 | 1162 ft | 140 kts | 145° |
| 2026-04-20 19:37 | -21.12009 | 149.14810 | 971 ft | 143 kts | 146° |
| 2026-04-20 19:38 | -21.12848 | 149.15382 | 768 ft | 142 kts | 146° |
| 2026-04-20 19:38 | -21.13676 | 149.15948 | 608 ft | 142 kts | 148° |
| 2026-04-20 19:38 | -21.14514 | 149.16516 | 406 ft | 138 kts | 148° |
| 2026-04-20 19:38 | -21.15277 | 149.17054 | 369 ft | 128 kts | 149° |
| 2026-04-20 19:39 | -21.15795 | 149.17399 | 192 ft | 138 kts | 150° |
| 2026-04-20 19:39 | -21.16622 | 149.17949 | 46 ft | 135 kts | 148° |
| 2026-04-20 19:39 | -21.17396 | 149.18469 | 26 ft | 29 kts | 146° |
| 2026-04-20 19:39 | -21.17475 | 149.18513 | 27 ft | 10 kts | 180° |
| 2026-04-20 19:40 | -21.17527 | 149.18461 | 21 ft | 12 kts | 234° |
| 2026-04-20 19:40 | -21.17571 | 149.18387 | 21 ft | 12 kts | 238° |
| 2026-04-20 19:40 | -21.17591 | 149.18345 | 22 ft | 4 kts | 263° |
| 2026-04-20 19:40 | -21.17582 | 149.18319 | 22 ft | 4 kts | 294° |
| 2026-04-20 19:41 | -21.17576 | 149.18279 | 22 ft | 5 kts | 277° |
| 2026-04-20 19:41 | -21.17572 | 149.18259 | 25 ft | 2 kts | 285° |
| 2026-04-20 19:41 | -21.17571 | 149.18256 | 25 ft | 0 kts | 285° |